createdAt,value
2018-10-21T00:00:40.613Z,18.73
2018-10-21T00:03:08.864Z,22.93
2018-10-21T00:10:31.740Z,17.47
2018-10-21T00:12:59.948Z,17.77
2018-10-21T00:15:28.252Z,18.63
2018-10-21T00:17:57.332Z,15.85
2018-10-21T00:20:25.580Z,16.83
2018-10-21T00:22:53.773Z,24.43
2018-10-21T00:25:21.992Z,21.20
2018-10-21T00:27:50.208Z,18.30
2018-10-21T00:30:18.440Z,20.70
2018-10-21T00:32:48.466Z,17.32
2018-10-21T00:35:20.447Z,18.48
2018-10-21T00:37:48.672Z,16.23
2018-10-21T00:40:17.275Z,17.23
2018-10-21T00:42:45.483Z,20.93
2018-10-21T00:45:13.963Z,18.27
2018-10-21T00:47:42.258Z,17.57
2018-10-21T00:50:21.502Z,22.52
2018-10-21T00:52:49.712Z,20.33
2018-10-21T00:55:18.666Z,19.98
2018-10-21T00:57:46.863Z,19.80
2018-10-21T01:00:15.054Z,19.70
2018-10-21T01:02:43.704Z,16.62
2018-10-21T01:05:11.980Z,16.40
2018-10-21T01:07:40.235Z,20.27
2018-10-21T01:10:10.445Z,17.67
2018-10-21T01:12:38.662Z,19.50
2018-10-21T01:15:08.434Z,22.40
2018-10-21T01:17:36.602Z,24.70
2018-10-21T01:20:06.638Z,18.10
2018-10-21T01:22:34.855Z,17.03
2018-10-21T01:25:03.512Z,19.90
2018-10-21T01:27:31.761Z,18.57
2018-10-21T01:29:59.967Z,17.67
2018-10-21T01:32:28.257Z,16.75
2018-10-21T01:35:03.507Z,17.87
2018-10-21T01:37:32.353Z,19.23
2018-10-21T01:40:47.114Z,16.20
2018-10-21T01:43:17.634Z,15.90
2018-10-21T01:45:45.995Z,18.97
2018-10-21T01:48:15.461Z,14.87
2018-10-21T01:50:47.509Z,17.98
2018-10-21T01:53:16.561Z,15.55
2018-10-21T01:55:44.899Z,20.33
2018-10-21T01:58:13.092Z,14.07
2018-10-21T02:00:41.873Z,15.83
2018-10-21T02:03:10.147Z,16.55
2018-10-21T02:05:38.948Z,19.87
2018-10-21T02:08:07.594Z,16.60
2018-10-21T02:10:35.780Z,14.63
2018-10-21T02:13:04.026Z,14.95
2018-10-21T02:15:32.292Z,21.30
2018-10-21T02:18:00.464Z,15.08
2018-10-21T02:20:31.852Z,16.13
2018-10-21T02:23:00.082Z,17.50
2018-10-21T02:25:28.556Z,18.77
2018-10-21T02:27:57.244Z,16.97
2018-10-21T02:30:26.619Z,15.35
2018-10-21T02:32:55.356Z,16.07
2018-10-21T02:35:23.789Z,18.62
2018-10-21T02:37:52.617Z,16.62
2018-10-21T02:41:46.291Z,19.63
2018-10-21T02:44:16.816Z,12.75
2018-10-21T02:46:45.701Z,15.87
2018-10-21T02:49:14.515Z,14.40
2018-10-21T02:51:54.905Z,21.40
2018-10-21T02:54:25.789Z,21.72
2018-10-21T02:56:54.194Z,16.70
2018-10-21T02:59:22.888Z,16.87
2018-10-21T03:01:51.084Z,17.65
2018-10-21T03:04:19.407Z,15.57
2018-10-21T03:06:56.080Z,15.68
2018-10-21T03:09:25.322Z,19.38
2018-10-21T03:11:53.552Z,18.82
2018-10-21T03:14:21.757Z,17.37
2018-10-21T03:16:50.003Z,17.13
2018-10-21T03:19:18.221Z,16.50
2018-10-21T03:21:46.540Z,17.33
2018-10-21T03:24:14.764Z,16.20
2018-10-21T03:26:43.471Z,19.30
2018-10-21T03:29:11.695Z,13.90
2018-10-21T03:31:40.176Z,18.50
2018-10-21T03:34:08.489Z,14.17
2018-10-21T03:36:39.752Z,21.43
2018-10-21T03:39:09.221Z,20.40
2018-10-21T03:41:37.468Z,15.80
2018-10-21T03:44:05.719Z,17.17
2018-10-21T03:46:34.316Z,23.50
2018-10-21T03:49:02.535Z,16.62
2018-10-21T03:51:31.349Z,18.67
2018-10-21T03:53:59.571Z,17.83
2018-10-21T03:56:27.764Z,19.63
2018-10-21T03:58:55.959Z,16.75
2018-10-21T04:01:24.169Z,13.97
2018-10-21T04:03:52.580Z,16.42
2018-10-21T04:06:20.784Z,21.70
2018-10-21T04:08:48.976Z,14.58
2018-10-21T04:11:17.336Z,17.95
2018-10-21T04:13:45.519Z,19.83
2018-10-21T04:16:13.798Z,17.77
2018-10-21T04:18:41.934Z,14.70
2018-10-21T04:21:10.156Z,14.85
2018-10-21T04:23:38.459Z,15.47
2018-10-21T04:26:06.673Z,15.43
2018-10-21T04:28:34.885Z,19.77
2018-10-21T04:31:03.112Z,16.03
2018-10-21T04:33:45.575Z,17.40
2018-10-21T04:36:17.506Z,19.07
2018-10-21T04:40:01.422Z,21.63
2018-10-21T04:42:32.718Z,17.60
2018-10-21T04:45:01.682Z,16.57
2018-10-21T04:47:30.230Z,26.52
2018-10-21T04:49:58.417Z,19.95
2018-10-21T04:52:27.502Z,17.13
2018-10-21T04:54:58.941Z,18.90
2018-10-21T04:57:27.098Z,17.83
2018-10-21T04:59:55.319Z,20.75
2018-10-21T05:02:23.520Z,18.40
2018-10-21T05:04:51.708Z,18.92
2018-10-21T05:07:19.924Z,22.80
2018-10-21T05:09:48.372Z,25.70
2018-10-21T05:12:16.694Z,12.80
2018-10-21T05:14:44.897Z,20.65
2018-10-21T05:17:13.326Z,16.47
2018-10-21T05:19:41.537Z,19.13
2018-10-21T05:22:09.825Z,19.60
2018-10-21T05:24:38.032Z,15.78
2018-10-21T05:27:09.949Z,16.70
2018-10-21T05:29:38.212Z,20.20
2018-10-21T05:32:06.404Z,17.70
2018-10-21T05:34:34.608Z,23.30
2018-10-21T05:37:02.849Z,22.07
2018-10-21T05:39:31.379Z,15.00
2018-10-21T05:42:02.908Z,21.30
2018-10-21T05:44:31.188Z,19.00
2018-10-21T05:46:59.421Z,22.10
2018-10-21T05:49:28.124Z,20.75
2018-10-21T05:51:56.371Z,17.20
2018-10-21T05:54:27.884Z,23.55
2018-10-21T05:56:59.650Z,18.13
2018-10-21T05:59:27.924Z,25.47
2018-10-21T06:01:56.132Z,19.07
2018-10-21T06:04:24.322Z,20.17
2018-10-21T06:06:53.471Z,19.80
2018-10-21T06:09:21.640Z,22.53
2018-10-21T06:11:53.512Z,23.57
2018-10-21T06:14:21.688Z,20.27
2018-10-21T06:17:01.253Z,21.13
2018-10-21T06:19:35.753Z,24.45
2018-10-21T06:22:04.500Z,19.57
2018-10-21T06:24:35.581Z,21.70
2018-10-21T06:27:03.755Z,21.65
2018-10-21T06:29:32.000Z,12.10
2018-10-21T06:32:00.207Z,17.27
2018-10-21T06:34:28.429Z,13.90
2018-10-21T06:36:56.664Z,15.93
2018-10-21T06:39:24.858Z,19.73
2018-10-21T06:41:56.463Z,22.77
2018-10-21T06:44:24.681Z,20.62
2018-10-21T06:46:52.892Z,20.00
2018-10-21T06:49:21.921Z,19.85
2018-10-21T06:51:50.125Z,21.63
2018-10-21T06:54:18.363Z,15.60
2018-10-21T06:56:51.408Z,17.83
2018-10-21T06:59:19.413Z,21.63
2018-10-21T07:01:47.820Z,20.48
2018-10-21T07:04:16.157Z,19.50
2018-10-21T07:06:44.280Z,19.87
2018-10-21T07:09:12.672Z,20.60
2018-10-21T07:11:45.104Z,19.57
2018-10-21T07:14:13.312Z,16.87
2018-10-21T07:16:42.179Z,18.80
2018-10-21T07:19:10.276Z,17.00
2018-10-21T07:21:38.496Z,23.00
2018-10-21T07:24:07.188Z,19.52
2018-10-21T07:26:35.389Z,16.33
2018-10-21T07:29:03.612Z,17.35
2018-10-21T07:31:32.018Z,18.80
2018-10-21T07:34:00.430Z,19.63
2018-10-21T07:36:28.651Z,22.00
2018-10-21T07:38:56.799Z,23.00
2018-10-21T07:41:25.002Z,21.33
2018-10-21T07:43:53.209Z,17.57
2018-10-21T07:46:21.533Z,19.27
2018-10-21T07:48:50.049Z,21.33
2018-10-21T07:51:18.242Z,24.70
2018-10-21T07:53:46.415Z,17.90
2018-10-21T07:56:21.688Z,20.80
2018-10-21T07:58:49.928Z,19.50
2018-10-21T08:01:18.182Z,22.70
2018-10-21T08:03:47.012Z,20.23
2018-10-21T08:06:32.141Z,22.02
2018-10-21T08:09:00.500Z,21.13
2018-10-21T08:11:34.260Z,18.95
2018-10-21T08:14:02.827Z,25.03
2018-10-21T08:16:31.054Z,23.67
2018-10-21T08:18:59.260Z,28.25
2018-10-21T08:21:27.504Z,19.33
2018-10-21T08:23:55.694Z,20.67
2018-10-21T08:26:34.223Z,24.00
2018-10-21T08:29:02.712Z,25.53
2018-10-21T08:31:31.589Z,20.52
2018-10-21T08:34:00.030Z,22.73
2018-10-21T08:36:28.224Z,21.07
2018-10-21T08:38:56.575Z,24.30
2018-10-21T08:41:24.749Z,25.00
2018-10-21T08:43:53.016Z,20.17
2018-10-21T08:46:22.244Z,24.50
2018-10-21T08:48:50.349Z,21.80
2018-10-21T08:51:18.524Z,22.05
2018-10-21T08:53:46.823Z,19.70
2018-10-21T08:56:15.948Z,20.10
2018-10-21T08:58:44.196Z,25.40
2018-10-21T09:01:12.508Z,17.23
2018-10-21T09:03:41.003Z,19.05
2018-10-21T09:06:09.303Z,22.23
2018-10-21T09:08:37.495Z,19.57
2018-10-21T09:11:05.802Z,18.00
2018-10-21T09:13:34.031Z,21.57
2018-10-21T09:16:02.285Z,23.80
2018-10-21T09:18:30.648Z,22.50
2018-10-21T09:20:58.883Z,23.40
2018-10-21T09:23:27.172Z,21.87
2018-10-21T09:25:55.374Z,21.27
2018-10-21T09:28:23.591Z,17.70
2018-10-21T09:30:51.780Z,21.50
2018-10-21T09:33:20.279Z,22.35
2018-10-21T09:35:48.470Z,23.27
2018-10-21T09:38:16.734Z,25.37
2018-10-21T09:40:44.932Z,26.63
2018-10-21T09:43:17.838Z,28.20
2018-10-21T09:45:46.013Z,27.75
2018-10-21T09:48:14.217Z,31.75
2018-10-21T09:50:42.440Z,23.43
2018-10-21T09:53:10.700Z,24.23
2018-10-21T09:55:39.784Z,28.70
2018-10-21T09:58:11.400Z,20.40
2018-10-21T10:00:45.582Z,20.40
2018-10-21T10:03:14.028Z,24.43
2018-10-21T10:05:42.205Z,21.50
2018-10-21T10:08:11.404Z,23.20
2018-10-21T10:10:39.739Z,25.83
2018-10-21T10:13:11.819Z,22.70
2018-10-21T10:15:40.005Z,23.07
2018-10-21T10:18:08.277Z,23.37
2018-10-21T10:20:36.469Z,26.60
2018-10-21T10:23:05.072Z,22.07
2018-10-21T10:25:33.264Z,19.90
2018-10-21T10:28:01.503Z,23.57
2018-10-21T10:30:29.830Z,29.87
2018-10-21T10:32:57.944Z,21.10
2018-10-21T10:35:26.158Z,19.23
2018-10-21T10:37:55.367Z,23.97
2018-10-21T10:40:23.638Z,22.43
2018-10-21T10:42:51.961Z,24.40
2018-10-21T10:45:20.644Z,25.70
2018-10-21T10:47:48.868Z,18.87
2018-10-21T10:50:17.100Z,19.92
2018-10-21T10:52:45.337Z,20.70
2018-10-21T10:55:13.644Z,24.15
2018-10-21T10:57:41.972Z,25.23
2018-10-21T11:00:11.641Z,20.07
2018-10-21T11:02:40.164Z,23.10
2018-10-21T11:05:09.089Z,19.90
2018-10-21T11:07:37.461Z,20.37
2018-10-21T11:10:07.141Z,18.40
2018-10-21T11:12:35.373Z,15.53
2018-10-21T11:15:03.696Z,18.40
2018-10-21T11:17:31.903Z,18.43
2018-10-21T11:20:00.093Z,17.98
2018-10-21T11:22:28.443Z,13.73
2018-10-21T11:24:56.563Z,17.15
2018-10-21T11:27:24.799Z,15.55
2018-10-21T11:30:00.093Z,14.87
2018-10-21T11:32:32.768Z,16.10
2018-10-21T11:35:01.504Z,14.75
2018-10-21T11:37:29.931Z,15.13
2018-10-21T11:40:05.022Z,15.08
2018-10-21T11:42:33.239Z,15.80
2018-10-21T11:45:02.510Z,14.13
2018-10-21T11:47:35.019Z,16.63
2018-10-21T11:50:03.380Z,14.20
2018-10-21T11:52:31.671Z,17.73
2018-10-21T11:54:59.824Z,12.33
2018-10-21T11:57:28.026Z,13.43
2018-10-21T12:00:00.697Z,21.87
2018-10-21T12:02:28.932Z,12.33
2018-10-21T12:04:57.153Z,15.23
2018-10-21T12:07:25.400Z,10.98
2018-10-21T12:09:53.668Z,20.67
2018-10-21T12:12:22.705Z,14.30
2018-10-21T12:14:50.895Z,9.13
2018-10-21T12:17:22.200Z,18.40
2018-10-21T12:19:50.498Z,10.00
2018-10-21T12:22:18.779Z,14.33
2018-10-21T12:24:46.997Z,10.50
2018-10-21T12:27:15.316Z,10.98
2018-10-21T12:29:43.554Z,14.90
2018-10-21T12:32:16.180Z,12.07
2018-10-21T12:34:44.459Z,12.43
2018-10-21T12:37:13.469Z,11.67
2018-10-21T12:39:41.676Z,12.47
2018-10-21T12:42:09.886Z,9.30
2018-10-21T12:44:38.257Z,13.80
2018-10-21T12:47:14.592Z,9.47
2018-10-21T12:49:42.717Z,17.50
2018-10-21T12:52:11.061Z,12.23
2018-10-21T12:54:43.368Z,9.28
2018-10-21T12:57:11.584Z,10.63
2018-10-21T12:59:39.778Z,8.77
2018-10-21T13:02:11.313Z,10.67
2018-10-21T13:04:40.226Z,7.44
2018-10-21T13:07:08.588Z,12.47
2018-10-21T13:09:36.808Z,7.20
2018-10-21T13:12:05.283Z,9.80
2018-10-21T13:14:33.498Z,5.17
2018-10-21T13:17:01.692Z,9.80
2018-10-21T13:19:29.892Z,10.50
2018-10-21T13:21:58.196Z,7.90
2018-10-21T13:24:26.355Z,13.40
2018-10-21T13:26:54.568Z,11.57
2018-10-21T13:29:22.875Z,9.97
2018-10-21T13:31:51.071Z,7.47
2018-10-21T13:34:19.302Z,11.83
2018-10-21T13:36:47.573Z,7.47
2018-10-21T13:39:15.752Z,10.18
2018-10-21T13:41:45.048Z,10.70
2018-10-21T13:44:14.133Z,12.75
2018-10-21T13:46:42.599Z,8.80
2018-10-21T13:49:11.144Z,10.40
2018-10-21T13:51:39.293Z,9.65
2018-10-21T13:54:07.480Z,7.53
2018-10-21T13:56:35.719Z,10.47
2018-10-21T13:59:04.077Z,8.20
2018-10-21T14:01:32.318Z,7.20
2018-10-21T14:04:00.484Z,8.00
2018-10-21T14:06:28.729Z,10.33
2018-10-21T14:08:56.982Z,8.37
2018-10-21T14:11:25.209Z,15.80
2018-10-21T14:13:53.433Z,12.00
2018-10-21T14:16:21.845Z,9.45
2018-10-21T14:18:50.411Z,10.73
2018-10-21T14:21:18.900Z,11.60
2018-10-21T14:23:48.879Z,12.95
2018-10-21T14:26:18.201Z,7.95
2018-10-21T14:28:46.435Z,7.60
2018-10-21T14:31:14.671Z,6.63
2018-10-21T14:33:43.147Z,13.13
2018-10-21T14:36:11.801Z,7.47
2018-10-21T14:38:39.974Z,7.33
2018-10-21T14:41:08.171Z,7.20
2018-10-21T14:43:36.488Z,7.70
2018-10-21T14:46:05.069Z,12.10
2018-10-21T14:48:37.392Z,10.30
2018-10-21T14:51:05.648Z,8.57
2018-10-21T14:53:34.012Z,9.27
2018-10-21T14:56:03.210Z,7.30
2018-10-21T14:58:31.411Z,6.70
2018-10-21T15:00:59.625Z,6.63
2018-10-21T15:03:31.553Z,12.03
2018-10-21T15:05:59.736Z,9.83
2018-10-21T15:08:27.919Z,7.40
2018-10-21T15:10:56.153Z,10.20
2018-10-21T15:13:24.299Z,8.98
2018-10-21T15:15:53.036Z,7.75
2018-10-21T15:18:21.243Z,9.00
2018-10-21T15:20:49.435Z,7.15
2018-10-21T15:23:17.642Z,11.73
2018-10-21T15:25:45.948Z,6.63
2018-10-21T15:28:14.225Z,6.40
2018-10-21T15:30:42.437Z,6.60
2018-10-21T15:33:10.685Z,10.00
2018-10-21T15:35:38.888Z,8.78
2018-10-21T15:38:07.082Z,7.50
2018-10-21T15:40:35.256Z,7.78
2018-10-21T15:43:03.486Z,9.75
2018-10-21T15:45:32.152Z,10.35
2018-10-21T15:48:00.369Z,7.43
2018-10-21T15:50:28.612Z,12.57
2018-10-21T15:52:56.815Z,11.97
2018-10-21T15:55:25.084Z,10.53
2018-10-21T15:57:53.300Z,12.97
2018-10-21T16:00:21.509Z,13.30
2018-10-21T16:02:49.761Z,12.83
2018-10-21T16:05:17.957Z,9.10
2018-10-21T16:07:46.171Z,11.60
2018-10-21T16:10:14.409Z,7.47
2018-10-21T16:12:42.660Z,9.63
2018-10-21T16:15:13.327Z,11.60
2018-10-21T16:17:41.667Z,14.35
2018-10-21T16:20:09.918Z,9.47
2018-10-21T16:22:39.553Z,11.43
2018-10-21T16:25:09.256Z,9.10
2018-10-21T16:27:37.555Z,12.50
2018-10-21T16:30:08.236Z,11.60
2018-10-21T16:32:36.864Z,10.63
2018-10-21T16:35:05.566Z,9.53
2018-10-21T16:37:36.909Z,17.50
2018-10-21T16:40:06.337Z,14.58
2018-10-21T16:42:34.509Z,15.08
2018-10-21T16:45:02.934Z,10.60
2018-10-21T16:47:31.717Z,15.30
2018-10-21T16:50:03.818Z,13.63
2018-10-21T16:52:32.141Z,12.82
2018-10-21T16:55:00.401Z,10.47
2018-10-21T16:57:28.590Z,8.87
2018-10-21T16:59:57.258Z,10.95
2018-10-21T17:02:25.463Z,11.10
2018-10-21T17:04:57.422Z,21.10
2018-10-21T17:07:25.626Z,16.10
2018-10-21T17:09:54.199Z,13.47
2018-10-21T17:12:22.079Z,18.20
2018-10-21T17:14:50.343Z,24.20
2018-10-21T17:17:18.958Z,21.17
2018-10-21T17:19:47.316Z,23.26
2018-10-21T17:22:15.533Z,28.63
2018-10-21T17:24:43.873Z,25.57
2018-10-21T17:27:12.225Z,27.33
2018-10-21T17:29:40.409Z,28.63
2018-10-21T17:32:08.667Z,21.23
2018-10-21T17:34:36.858Z,13.63
2018-10-21T17:37:05.223Z,16.37
2018-10-21T17:39:33.387Z,19.27
2018-10-21T17:42:01.563Z,19.63
2018-10-21T17:44:29.721Z,11.50
2018-10-21T17:46:57.879Z,16.60
2018-10-21T17:49:26.114Z,19.52
2018-10-21T17:51:57.229Z,21.17
2018-10-21T17:54:25.448Z,15.53
2018-10-21T17:56:59.628Z,14.90
2018-10-21T17:59:28.412Z,11.83
2018-10-21T18:01:57.844Z,14.03
2018-10-21T18:04:26.900Z,17.80
2018-10-21T18:06:55.310Z,18.90
2018-10-21T18:09:23.456Z,19.53
2018-10-21T18:11:52.122Z,11.95
2018-10-21T18:14:20.320Z,21.63
2018-10-21T18:16:48.653Z,18.35
2018-10-21T18:19:17.108Z,14.40
2018-10-21T18:21:45.287Z,17.37
2018-10-21T18:24:13.536Z,13.33
2018-10-21T18:26:41.778Z,14.77
2018-10-21T18:29:09.973Z,20.12
2018-10-21T18:31:38.223Z,15.77
2018-10-21T18:34:06.590Z,15.65
2018-10-21T18:36:34.761Z,13.27
2018-10-21T18:39:03.399Z,13.10
2018-10-21T18:41:31.615Z,16.10
2018-10-21T18:43:59.907Z,18.00
2018-10-21T18:46:28.141Z,17.73
2018-10-21T18:48:56.477Z,16.60
2018-10-21T18:51:24.713Z,15.10
2018-10-21T18:53:57.212Z,16.57
2018-10-21T18:56:25.425Z,18.52
2018-10-21T18:58:53.634Z,16.80
2018-10-21T19:01:21.894Z,16.23
2018-10-21T19:03:51.040Z,11.47
2018-10-21T19:06:19.204Z,18.65
2018-10-21T19:08:50.918Z,14.47
2018-10-21T19:11:19.172Z,19.13
2018-10-21T19:13:47.424Z,17.48
2018-10-21T19:16:16.327Z,19.65
2018-10-21T19:18:44.512Z,14.00
2018-10-21T19:21:12.779Z,20.90
2018-10-21T19:23:48.635Z,17.30
2018-10-21T19:26:17.248Z,19.17
2018-10-21T19:28:45.452Z,14.93
2018-10-21T19:31:13.649Z,17.20
2018-10-21T19:33:41.847Z,17.70
2018-10-21T19:36:10.023Z,23.17
2018-10-21T19:38:41.575Z,19.00
2018-10-21T19:41:09.789Z,24.77
2018-10-21T19:43:38.053Z,19.23
2018-10-21T19:46:06.382Z,15.30
2018-10-21T19:48:34.557Z,15.50
2018-10-21T19:51:03.124Z,16.73
2018-10-21T19:53:34.985Z,16.67
2018-10-21T19:56:03.191Z,18.05
2018-10-21T19:58:32.142Z,29.65
2018-10-21T20:01:00.352Z,16.25
2018-10-21T20:03:28.520Z,15.43
2018-10-21T20:05:57.000Z,18.77
2018-10-21T20:08:32.528Z,21.10
2018-10-21T20:11:00.744Z,19.15
2018-10-21T20:13:28.963Z,18.20
2018-10-21T20:15:58.101Z,19.55
2018-10-21T20:18:26.335Z,24.57
2018-10-21T20:20:54.581Z,23.45
2018-10-21T20:23:26.980Z,18.40
2018-10-21T20:25:56.184Z,18.87
2018-10-21T20:28:24.457Z,20.40
2018-10-21T20:30:53.463Z,23.52
2018-10-21T20:33:21.583Z,21.43
2018-10-21T20:35:49.800Z,20.62
2018-10-21T20:38:18.139Z,21.13
2018-10-21T20:40:47.088Z,23.53
2018-10-21T20:43:15.679Z,22.25
2018-10-21T20:45:43.932Z,20.00
2018-10-21T20:48:12.912Z,20.17
2018-10-21T20:50:41.042Z,17.70
2018-10-21T20:53:09.223Z,24.03
2018-10-21T20:55:37.780Z,22.05
2018-10-21T20:58:05.954Z,17.73
2018-10-21T21:00:34.236Z,33.83
2018-10-21T21:03:02.426Z,24.60
2018-10-21T21:05:30.598Z,19.90
2018-10-21T21:07:58.768Z,26.83
2018-10-21T21:10:27.135Z,20.52
2018-10-21T21:12:55.671Z,18.40
2018-10-21T21:15:24.076Z,19.90
2018-10-21T21:17:52.260Z,20.90
2018-10-21T21:20:20.511Z,22.70
2018-10-21T21:22:48.689Z,15.87
2018-10-21T21:25:16.911Z,22.83
2018-10-21T21:27:45.104Z,26.35
2018-10-21T21:30:13.400Z,23.70
2018-10-21T21:32:41.544Z,20.43
2018-10-21T21:35:09.813Z,22.50
2018-10-21T21:37:38.452Z,20.80
2018-10-21T21:40:11.893Z,25.37
2018-10-21T21:42:40.356Z,19.97
2018-10-21T21:45:09.383Z,24.47
2018-10-21T21:47:37.620Z,24.83
2018-10-21T21:50:07.231Z,17.50
2018-10-21T21:52:35.422Z,23.23
2018-10-21T21:55:03.616Z,22.40
2018-10-21T21:57:31.873Z,17.67
2018-10-21T22:00:00.071Z,20.20
2018-10-21T22:02:28.314Z,22.10
2018-10-21T22:04:56.919Z,17.60
2018-10-21T22:07:25.124Z,21.83
2018-10-21T22:09:53.374Z,27.77
2018-10-21T22:12:21.724Z,24.20
2018-10-21T22:14:49.826Z,26.67
2018-10-21T22:17:18.052Z,17.90
2018-10-21T22:19:46.256Z,23.80
2018-10-21T22:22:14.587Z,21.30
2018-10-21T22:24:42.727Z,20.90
2018-10-21T22:27:15.120Z,22.87
2018-10-21T22:29:43.291Z,20.67
2018-10-21T22:32:11.572Z,24.13
2018-10-21T22:34:39.990Z,19.37
2018-10-21T22:37:08.199Z,22.42
2018-10-21T22:39:36.386Z,19.47
2018-10-21T22:42:04.653Z,20.12
2018-10-21T22:44:32.847Z,19.80
2018-10-21T22:47:01.071Z,17.15
2018-10-21T22:49:29.253Z,24.00
2018-10-21T22:51:57.463Z,17.23
2018-10-21T22:54:25.686Z,18.17
2018-10-21T22:56:57.836Z,24.18
2018-10-21T22:59:26.005Z,17.98
2018-10-21T23:01:54.301Z,17.43
2018-10-21T23:04:22.521Z,20.50
2018-10-21T23:06:50.712Z,20.03
2018-10-21T23:09:18.892Z,22.70
2018-10-21T23:11:51.073Z,25.68
2018-10-21T23:19:22.943Z,16.45
2018-10-21T23:21:51.688Z,19.57
2018-10-21T23:24:20.056Z,22.73
2018-10-21T23:26:55.595Z,19.27
2018-10-21T23:29:23.776Z,19.70
2018-10-21T23:31:52.273Z,25.08
2018-10-21T23:34:20.487Z,22.03
2018-10-21T23:36:48.675Z,16.33
2018-10-21T23:39:16.837Z,20.90
2018-10-21T23:41:48.517Z,15.72
2018-10-21T23:44:17.144Z,13.70
2018-10-21T23:46:45.365Z,17.53
2018-10-21T23:49:13.763Z,16.40
2018-10-21T23:51:42.098Z,14.98
2018-10-21T23:54:10.530Z,16.60
2018-10-21T23:56:38.792Z,12.37
2018-10-21T23:59:10.441Z,17.20
